createdAt,value
2023-02-23T00:00:34.685Z,16.20
2023-02-23T00:03:14.535Z,20.60
2023-02-23T00:05:43.176Z,11.50
2023-02-23T00:08:11.062Z,18.60
2023-02-23T00:10:39.512Z,11.00
2023-02-23T00:13:07.364Z,13.60
2023-02-23T00:15:36.174Z,13.70
2023-02-23T00:18:04.597Z,13.70
2023-02-23T00:20:32.711Z,14.20
2023-02-23T00:23:00.645Z,16.00
2023-02-23T00:25:31.019Z,12.60
2023-02-23T00:27:59.277Z,17.00
2023-02-23T00:30:27.182Z,22.00
2023-02-23T00:32:55.152Z,78.70
2023-02-23T00:35:25.244Z,16.80
2023-02-23T00:37:53.184Z,14.90
2023-02-23T00:40:22.970Z,17.70
2023-02-23T00:42:52.358Z,19.10
2023-02-23T00:45:21.306Z,16.70
2023-02-23T00:47:49.273Z,20.30
2023-02-23T00:50:18.072Z,16.50
2023-02-23T00:52:47.584Z,14.90
2023-02-23T00:55:15.536Z,15.10
2023-02-23T00:57:43.454Z,15.90
2023-02-23T01:00:21.536Z,13.50
2023-02-23T01:02:49.572Z,17.20
2023-02-23T01:05:17.788Z,18.10
2023-02-23T01:07:46.425Z,25.70
2023-02-23T01:10:20.146Z,22.60
2023-02-23T01:12:51.782Z,21.10
2023-02-23T01:15:21.047Z,14.50
2023-02-23T01:17:49.139Z,22.20
2023-02-23T01:20:18.969Z,13.20
2023-02-23T01:22:51.285Z,19.00
2023-02-23T01:25:19.321Z,12.60
2023-02-23T01:27:47.207Z,18.90
2023-02-23T01:30:15.797Z,16.80
2023-02-23T01:32:45.311Z,22.60
2023-02-23T01:35:13.948Z,16.10
2023-02-23T01:37:43.959Z,18.20
2023-02-23T01:40:29.350Z,13.80
2023-02-23T01:43:13.491Z,9.00
2023-02-23T01:45:44.426Z,10.70
2023-02-23T01:48:20.392Z,15.00
2023-02-23T01:51:08.797Z,14.50
2023-02-23T01:53:48.095Z,18.40
2023-02-23T01:56:23.965Z,19.40
2023-02-23T01:58:57.737Z,21.10
2023-02-23T02:01:25.757Z,23.60
2023-02-23T02:04:02.251Z,16.90
2023-02-23T02:06:31.526Z,20.70
2023-02-23T02:09:16.318Z,22.70
2023-02-23T02:11:46.483Z,23.90
2023-02-23T02:14:23.756Z,21.50
2023-02-23T02:17:07.099Z,15.60
2023-02-23T02:20:36.578Z,15.00
2023-02-23T02:23:43.770Z,16.10
2023-02-23T02:26:51.527Z,22.20
2023-02-23T02:30:13.964Z,15.80
2023-02-23T02:33:26.739Z,17.20
2023-02-23T02:36:50.008Z,20.60
2023-02-23T02:39:44.993Z,21.80
2023-02-23T02:42:35.007Z,21.10
2023-02-23T02:45:22.186Z,17.80
2023-02-23T02:48:10.761Z,17.80
2023-02-23T02:50:58.165Z,23.20
2023-02-23T02:53:35.221Z,19.60
2023-02-23T02:56:06.665Z,15.40
2023-02-23T02:58:39.093Z,23.70
2023-02-23T03:01:33.416Z,25.20
2023-02-23T03:04:38.470Z,17.10
2023-02-23T03:07:50.038Z,23.90
2023-02-23T03:10:55.818Z,20.80
2023-02-23T03:14:02.992Z,20.30
2023-02-23T03:17:03.365Z,14.40
2023-02-23T03:20:04.558Z,17.90
2023-02-23T03:22:59.375Z,24.10
2023-02-23T03:26:04.174Z,21.70
2023-02-23T03:29:09.800Z,20.10
2023-02-23T03:32:08.142Z,18.50
2023-02-23T03:35:01.590Z,11.80
2023-02-23T03:38:30.516Z,18.00
2023-02-23T03:41:19.581Z,12.90
2023-02-23T03:44:17.531Z,19.90
2023-02-23T03:47:06.623Z,25.10
2023-02-23T03:49:58.306Z,20.50
2023-02-23T03:52:58.568Z,22.60
2023-02-23T03:55:52.871Z,21.90
2023-02-23T03:59:02.404Z,15.70
2023-02-23T04:01:51.329Z,21.90
2023-02-23T04:04:41.398Z,16.70
2023-02-23T04:07:29.056Z,17.90
2023-02-23T04:10:15.622Z,17.20
2023-02-23T04:13:10.617Z,27.50
2023-02-23T04:15:46.781Z,24.30
2023-02-23T04:18:23.580Z,22.00
2023-02-23T04:20:52.524Z,22.80
2023-02-23T04:23:22.845Z,16.80
2023-02-23T04:25:52.554Z,22.10
2023-02-23T04:28:21.846Z,23.80
2023-02-23T04:30:52.446Z,19.80
2023-02-23T04:33:22.103Z,21.00
2023-02-23T04:35:52.425Z,20.30
2023-02-23T04:38:22.419Z,22.60
2023-02-23T04:40:51.399Z,17.20
2023-02-23T04:43:19.953Z,18.90
2023-02-23T04:45:47.936Z,18.40
2023-02-23T04:48:21.559Z,16.80
2023-02-23T04:50:53.154Z,24.30
2023-02-23T04:53:21.536Z,23.80
2023-02-23T04:55:49.542Z,21.10
2023-02-23T04:58:17.590Z,21.40
2023-02-23T05:00:45.490Z,15.40
2023-02-23T05:03:13.475Z,22.60
2023-02-23T05:05:41.529Z,24.50
2023-02-23T05:08:10.326Z,16.70
2023-02-23T05:10:40.237Z,21.00
2023-02-23T05:13:08.578Z,24.40
2023-02-23T05:15:38.609Z,19.50
2023-02-23T05:18:08.035Z,20.20
2023-02-23T05:20:35.932Z,21.80
2023-02-23T05:23:04.474Z,27.20
2023-02-23T05:25:33.365Z,23.30
2023-02-23T05:28:01.221Z,16.90
2023-02-23T05:30:29.227Z,22.40
2023-02-23T05:32:57.177Z,18.60
2023-02-23T05:35:25.129Z,25.70
2023-02-23T05:37:53.048Z,26.50
2023-02-23T05:40:20.956Z,24.90
2023-02-23T05:42:48.886Z,22.20
2023-02-23T05:45:16.909Z,24.20
2023-02-23T05:47:44.828Z,20.70
2023-02-23T05:50:12.703Z,23.70
2023-02-23T05:52:41.919Z,29.00
2023-02-23T05:55:15.202Z,25.90
2023-02-23T05:57:43.824Z,28.60
2023-02-23T06:00:15.250Z,29.40
2023-02-23T06:02:43.149Z,22.70
2023-02-23T06:05:13.580Z,24.20
2023-02-23T06:07:43.698Z,25.10
2023-02-23T06:10:12.155Z,25.40
2023-02-23T06:12:40.091Z,31.50
2023-02-23T06:15:08.631Z,22.80
2023-02-23T06:17:36.809Z,21.00
2023-02-23T06:20:07.158Z,23.70
2023-02-23T06:25:08.796Z,22.50
2023-02-23T06:27:39.086Z,18.20
2023-02-23T06:30:08.487Z,25.30
2023-02-23T06:32:36.470Z,26.50
2023-02-23T06:35:07.028Z,27.30
2023-02-23T06:37:36.321Z,23.60
2023-02-23T06:40:05.902Z,24.60
2023-02-23T06:42:35.905Z,24.40
2023-02-23T06:45:04.974Z,25.10
2023-02-23T06:47:33.655Z,12.90
2023-02-23T06:50:03.981Z,23.30
2023-02-23T06:52:32.120Z,24.20
2023-02-23T06:54:59.956Z,25.10
2023-02-23T06:57:27.873Z,32.40
2023-02-23T06:59:55.888Z,25.10
2023-02-23T07:02:23.871Z,22.00
2023-02-23T07:04:51.829Z,30.40
2023-02-23T07:07:19.915Z,27.70
2023-02-23T07:09:47.897Z,28.20
2023-02-23T07:12:15.870Z,27.90
2023-02-23T07:14:43.936Z,20.40
2023-02-23T07:17:12.707Z,24.20
2023-02-23T07:19:40.765Z,32.80
2023-02-23T07:22:08.714Z,20.70
2023-02-23T07:24:37.482Z,29.10
2023-02-23T07:27:05.455Z,20.30
2023-02-23T07:29:33.376Z,26.30
2023-02-23T07:32:01.458Z,45.80
2023-02-23T07:34:29.770Z,27.70
2023-02-23T07:36:57.790Z,21.60
2023-02-23T07:39:25.967Z,24.70
2023-02-23T07:41:54.072Z,27.90
2023-02-23T07:44:22.266Z,29.20
2023-02-23T07:46:50.566Z,28.30
2023-02-23T07:49:18.701Z,28.30
2023-02-23T07:51:47.342Z,25.30
2023-02-23T07:54:15.913Z,24.60
2023-02-23T07:56:44.566Z,26.30
2023-02-23T07:59:12.747Z,25.70
2023-02-23T08:01:40.938Z,28.50
2023-02-23T08:04:09.286Z,30.80
2023-02-23T08:06:37.344Z,27.00
2023-02-23T08:09:07.350Z,30.20
2023-02-23T08:11:35.436Z,22.60
2023-02-23T08:14:03.538Z,24.50
2023-02-23T08:16:33.454Z,33.00
2023-02-23T08:19:01.935Z,23.10
2023-02-23T08:21:31.229Z,24.50
2023-02-23T08:23:59.215Z,27.80
2023-02-23T08:26:27.234Z,31.20
2023-02-23T08:28:55.877Z,82.70
2023-02-23T08:31:25.161Z,41.70
2023-02-23T08:33:53.755Z,29.00
2023-02-23T08:36:22.238Z,26.40
2023-02-23T08:38:50.866Z,24.30
2023-02-23T08:41:19.155Z,28.70
2023-02-23T08:43:48.849Z,25.10
2023-02-23T08:46:18.991Z,31.40
2023-02-23T08:48:47.200Z,30.20
2023-02-23T08:51:15.292Z,27.50
2023-02-23T08:53:45.793Z,31.50
2023-02-23T08:56:15.280Z,30.50
2023-02-23T08:58:44.071Z,28.30
2023-02-23T09:01:22.353Z,36.00
2023-02-23T09:03:50.713Z,37.10
2023-02-23T09:06:23.132Z,31.40
2023-02-23T09:08:54.204Z,33.00
2023-02-23T09:11:24.248Z,194.70
2023-02-23T09:13:52.436Z,23.50
2023-02-23T09:16:20.399Z,32.30
2023-02-23T09:18:48.797Z,32.00
2023-02-23T09:21:21.190Z,34.80
2023-02-23T09:23:51.354Z,34.60
2023-02-23T09:26:20.269Z,24.60
2023-02-23T09:28:49.487Z,60.20
2023-02-23T09:31:22.346Z,32.60
2023-02-23T09:33:53.847Z,35.90
2023-02-23T09:36:26.409Z,21.30
2023-02-23T09:38:57.171Z,33.40
2023-02-23T09:41:50.502Z,25.50
2023-02-23T09:47:51.115Z,29.30
2023-02-23T09:50:30.208Z,24.90
2023-02-23T09:53:10.021Z,27.40
2023-02-23T09:55:42.084Z,28.60
2023-02-23T09:58:24.201Z,34.80
2023-02-23T10:01:09.920Z,26.70
2023-02-23T10:03:53.949Z,32.30
2023-02-23T10:06:22.501Z,34.20
2023-02-23T10:09:19.437Z,28.50
2023-02-23T10:12:13.074Z,27.50
2023-02-23T10:15:06.556Z,32.50
2023-02-23T10:17:44.896Z,28.10
2023-02-23T10:20:50.918Z,31.70
2023-02-23T10:23:28.668Z,32.90
2023-02-23T10:26:02.216Z,32.00
2023-02-23T10:28:36.578Z,28.70
2023-02-23T10:31:26.523Z,41.70
2023-02-23T10:33:58.703Z,27.50
2023-02-23T10:36:36.356Z,31.60
2023-02-23T10:39:08.324Z,30.60
2023-02-23T10:41:37.236Z,31.90
2023-02-23T10:44:16.935Z,29.70
2023-02-23T10:46:50.321Z,28.10
2023-02-23T10:49:23.331Z,35.10
2023-02-23T10:54:44.652Z,28.40
2023-02-23T10:57:39.906Z,34.80
2023-02-23T11:00:18.187Z,28.70
2023-02-23T11:02:47.892Z,32.80
2023-02-23T11:05:34.324Z,31.90
2023-02-23T11:08:39.451Z,32.30
2023-02-23T11:11:16.990Z,36.70
2023-02-23T11:13:50.172Z,26.40
2023-02-23T11:16:22.804Z,33.20
2023-02-23T11:19:04.012Z,34.30
2023-02-23T11:21:35.792Z,28.00
2023-02-23T11:24:32.976Z,33.60
2023-02-23T11:27:06.984Z,24.70
2023-02-23T11:29:43.440Z,27.10
2023-02-23T11:32:22.202Z,75.30
2023-02-23T11:35:22.520Z,36.40
2023-02-23T11:37:50.451Z,26.90
2023-02-23T11:40:26.205Z,31.30
2023-02-23T11:43:09.790Z,30.70
2023-02-23T11:45:50.390Z,31.60
2023-02-23T11:48:34.901Z,28.80
2023-02-23T11:51:03.342Z,31.50
2023-02-23T11:53:40.245Z,31.70
2023-02-23T11:56:10.975Z,35.20
2023-02-23T11:58:44.342Z,29.30
2023-02-23T12:01:16.975Z,31.60
2023-02-23T12:03:51.577Z,32.30
2023-02-23T12:06:46.056Z,28.20
2023-02-23T12:09:34.164Z,28.00
2023-02-23T12:12:13.616Z,30.30
2023-02-23T12:14:53.720Z,37.30
2023-02-23T12:17:27.855Z,36.80
2023-02-23T12:20:02.940Z,37.00
2023-02-23T12:22:42.180Z,31.40
2023-02-23T12:25:28.696Z,28.30
2023-02-23T12:28:19.395Z,31.70
2023-02-23T12:30:59.045Z,36.20
2023-02-23T12:33:55.390Z,34.20
2023-02-23T12:36:47.284Z,31.50
2023-02-23T12:39:31.533Z,27.90
2023-02-23T12:42:43.108Z,29.10
2023-02-23T12:45:55.127Z,30.50
2023-02-23T12:48:54.928Z,27.40
2023-02-23T12:52:02.542Z,26.70
2023-02-23T12:54:32.692Z,29.20
2023-02-23T12:57:33.991Z,60.00
2023-02-23T13:00:33.604Z,33.20
2023-02-23T13:03:36.752Z,30.30
2023-02-23T13:06:30.736Z,26.60
2023-02-23T13:09:30.612Z,31.30
2023-02-23T13:12:12.126Z,26.00
2023-02-23T13:15:18.393Z,30.70
2023-02-23T13:18:39.148Z,36.70
2023-02-23T13:21:26.948Z,36.70
2023-02-23T13:24:29.771Z,29.00
2023-02-23T13:27:43.537Z,34.80
2023-02-23T13:32:40.701Z,32.70
2023-02-23T13:35:16.558Z,33.20
2023-02-23T13:38:35.988Z,33.70
2023-02-23T13:41:22.104Z,29.60
2023-02-23T13:44:00.511Z,35.80
2023-02-23T13:46:46.177Z,33.40
2023-02-23T13:49:42.056Z,33.40
2023-02-23T13:52:42.438Z,34.10
2023-02-23T13:55:51.257Z,41.30
2023-02-23T13:58:28.776Z,38.40
2023-02-23T14:01:20.555Z,30.60
2023-02-23T14:03:59.732Z,34.80
2023-02-23T14:06:34.100Z,31.90
2023-02-23T14:09:23.824Z,37.40
2023-02-23T14:12:19.155Z,31.00
2023-02-23T14:14:47.286Z,33.20
2023-02-23T14:17:15.176Z,32.40
2023-02-23T14:20:06.737Z,42.00
2023-02-23T14:22:34.979Z,34.60
2023-02-23T14:25:38.911Z,33.10
2023-02-23T14:28:34.939Z,34.90
2023-02-23T14:31:20.654Z,39.70
2023-02-23T14:33:59.141Z,32.50
2023-02-23T14:36:33.724Z,33.50
2023-02-23T14:39:09.253Z,36.30
2023-02-23T14:41:59.949Z,26.20
2023-02-23T14:44:31.822Z,87.10
2023-02-23T14:46:59.724Z,40.20
2023-02-23T14:49:31.825Z,38.60
2023-02-23T14:52:08.283Z,39.90
2023-02-23T14:54:39.810Z,30.90
2023-02-23T14:57:22.760Z,31.70
2023-02-23T14:59:59.664Z,27.60
2023-02-23T15:02:30.989Z,30.50
2023-02-23T15:04:59.731Z,33.90
2023-02-23T15:07:38.325Z,33.00
2023-02-23T15:10:38.950Z,37.20
2023-02-23T15:13:33.764Z,33.20
2023-02-23T15:16:09.052Z,42.10
2023-02-23T15:18:40.961Z,79.60
2023-02-23T15:21:17.354Z,31.10
2023-02-23T15:23:51.936Z,30.40
2023-02-23T15:26:31.849Z,30.70
2023-02-23T15:29:19.390Z,30.00
2023-02-23T15:31:52.686Z,33.30
2023-02-23T15:34:30.762Z,32.40
2023-02-23T15:37:03.512Z,31.30
2023-02-23T15:39:53.802Z,32.10
2023-02-23T15:42:32.601Z,32.40
2023-02-23T15:45:04.564Z,33.70
2023-02-23T15:47:37.592Z,35.00
2023-02-23T15:50:34.944Z,35.30
2023-02-23T15:53:22.521Z,48.30
2023-02-23T15:55:51.593Z,59.50
2023-02-23T15:58:56.095Z,39.90
2023-02-23T16:01:30.918Z,54.90
2023-02-23T16:04:14.377Z,80.30
2023-02-23T16:07:18.581Z,62.30
2023-02-23T16:09:53.660Z,42.80
2023-02-23T16:12:35.783Z,36.10
2023-02-23T16:15:22.885Z,35.30
2023-02-23T16:18:05.753Z,35.50
2023-02-23T16:20:41.280Z,39.90
2023-02-23T16:23:33.793Z,35.60
2023-02-23T16:26:41.317Z,36.70
2023-02-23T16:29:17.879Z,36.90
2023-02-23T16:31:55.425Z,35.40
2023-02-23T16:34:44.521Z,34.00
2023-02-23T16:37:22.957Z,36.20
2023-02-23T16:39:51.693Z,85.60
2023-02-23T16:42:41.530Z,75.80
2023-02-23T16:45:16.216Z,50.30
2023-02-23T16:47:49.733Z,37.20
2023-02-23T16:50:24.266Z,34.80
2023-02-23T16:52:53.329Z,35.90
2023-02-23T16:55:26.140Z,35.30
2023-02-23T16:58:02.272Z,31.80
2023-02-23T17:00:33.245Z,36.70
2023-02-23T17:03:06.155Z,34.70
2023-02-23T17:05:34.295Z,33.20
2023-02-23T17:08:02.831Z,60.80
2023-02-23T17:10:34.679Z,42.90
2023-02-23T17:13:14.103Z,38.00
2023-02-23T17:15:56.433Z,39.70
2023-02-23T17:18:29.258Z,37.50
2023-02-23T17:21:01.013Z,40.20
2023-02-23T17:23:50.516Z,50.20
2023-02-23T17:26:25.865Z,39.70
2023-02-23T17:28:54.052Z,35.70
2023-02-23T17:31:24.822Z,35.40
2023-02-23T17:33:55.310Z,33.90
2023-02-23T17:36:23.941Z,37.40
2023-02-23T17:38:58.455Z,43.10
2023-02-23T17:41:27.207Z,47.70
2023-02-23T17:43:55.248Z,41.20
2023-02-23T17:46:24.070Z,38.10
2023-02-23T17:48:53.981Z,37.80
2023-02-23T17:51:23.604Z,184.10
2023-02-23T17:53:52.045Z,186.40
2023-02-23T17:56:20.526Z,48.60
2023-02-23T17:58:50.810Z,45.30
2023-02-23T18:01:19.979Z,39.90
2023-02-23T18:03:49.849Z,43.30
2023-02-23T18:06:17.863Z,40.80
2023-02-23T18:08:45.963Z,54.10
2023-02-23T18:11:18.451Z,54.30
2023-02-23T18:13:48.028Z,42.20
2023-02-23T18:16:17.143Z,43.00
2023-02-23T18:18:48.031Z,45.20
2023-02-23T18:21:22.226Z,41.60
2023-02-23T18:23:51.657Z,48.80
2023-02-23T18:26:23.167Z,50.70
2023-02-23T18:28:51.628Z,169.50
2023-02-23T18:31:24.668Z,323.00
2023-02-23T18:33:53.632Z,110.50
2023-02-23T18:36:31.739Z,61.30
2023-02-23T18:39:08.140Z,125.50
2023-02-23T18:41:36.265Z,65.70
2023-02-23T18:44:09.053Z,92.80
2023-02-23T18:46:37.696Z,97.10
2023-02-23T18:49:06.179Z,74.20
2023-02-23T18:51:38.953Z,81.80
2023-02-23T18:56:41.369Z,78.00
2023-02-23T18:59:10.275Z,86.50
2023-02-23T19:01:47.816Z,84.80
2023-02-23T19:04:16.002Z,95.10
2023-02-23T19:06:47.104Z,91.30
2023-02-23T19:09:19.707Z,94.40
2023-02-23T19:11:48.829Z,96.50
2023-02-23T19:14:19.898Z,101.20
2023-02-23T19:16:49.275Z,94.20
2023-02-23T19:19:18.355Z,99.20
2023-02-23T19:21:46.339Z,105.30
2023-02-23T19:24:14.299Z,100.70
2023-02-23T19:26:43.273Z,243.70
2023-02-23T19:29:11.196Z,485.10
2023-02-23T19:31:39.391Z,115.70
2023-02-23T19:34:08.655Z,112.10
2023-02-23T19:36:36.882Z,107.00
2023-02-23T19:39:10.462Z,123.40
2023-02-23T19:41:40.037Z,118.40
2023-02-23T19:44:08.872Z,113.60
2023-02-23T19:46:37.751Z,114.50
2023-02-23T19:49:06.428Z,109.70
2023-02-23T19:51:35.041Z,111.20
2023-02-23T19:54:04.467Z,100.00
2023-02-23T19:56:32.571Z,111.00
2023-02-23T19:59:03.738Z,107.70
2023-02-23T20:01:31.727Z,216.80
2023-02-23T20:04:06.729Z,381.30
2023-02-23T20:06:44.375Z,100.70
2023-02-23T20:09:14.358Z,107.00
2023-02-23T20:11:42.916Z,97.30
2023-02-23T20:14:12.632Z,103.80
2023-02-23T20:16:41.150Z,102.50
2023-02-23T20:19:11.828Z,100.30
2023-02-23T20:21:42.280Z,100.70
2023-02-23T20:24:12.886Z,105.20
2023-02-23T20:26:41.762Z,93.90
2023-02-23T20:29:18.061Z,108.20
2023-02-23T20:31:51.581Z,98.60
2023-02-23T20:34:24.389Z,95.70
2023-02-23T20:36:55.666Z,104.30
2023-02-23T20:39:24.344Z,93.80
2023-02-23T20:41:56.321Z,92.70
2023-02-23T20:44:25.439Z,103.10
2023-02-23T20:46:53.433Z,131.70
2023-02-23T20:49:22.752Z,259.50
2023-02-23T20:51:51.167Z,97.80
2023-02-23T20:54:20.066Z,94.10
2023-02-23T20:56:59.148Z,98.50
2023-02-23T20:59:30.941Z,96.20
2023-02-23T21:02:02.153Z,99.70
2023-02-23T21:04:30.691Z,106.00
2023-02-23T21:07:00.067Z,117.30
2023-02-23T21:09:31.083Z,104.90
2023-02-23T21:11:59.529Z,108.00
2023-02-23T21:14:27.638Z,101.10
2023-02-23T21:16:55.743Z,107.50
2023-02-23T21:19:24.368Z,96.40
2023-02-23T21:21:58.328Z,106.60
2023-02-23T21:24:26.996Z,114.70
2023-02-23T21:26:55.023Z,113.20
2023-02-23T21:29:24.180Z,113.10
2023-02-23T21:31:52.337Z,114.90
2023-02-23T21:34:20.512Z,122.30
2023-02-23T21:36:49.892Z,115.60
2023-02-23T21:39:17.874Z,118.50
2023-02-23T21:41:45.848Z,127.40
2023-02-23T21:44:13.951Z,115.30
2023-02-23T21:46:41.966Z,123.00
2023-02-23T21:49:10.142Z,113.50
2023-02-23T21:51:39.262Z,112.10
2023-02-23T21:54:07.222Z,116.70
2023-02-23T21:56:36.728Z,118.30
2023-02-23T21:59:08.230Z,121.30
2023-02-23T22:01:40.729Z,121.50
2023-02-23T22:04:14.180Z,129.50
2023-02-23T22:06:44.380Z,120.60
2023-02-23T22:09:15.435Z,127.50
2023-02-23T22:11:47.226Z,120.00
2023-02-23T22:14:17.024Z,118.60
2023-02-23T22:16:46.121Z,144.80
2023-02-23T22:19:14.238Z,134.30
2023-02-23T22:21:44.307Z,112.60
2023-02-23T22:24:14.150Z,111.40
2023-02-23T22:26:57.811Z,115.60
2023-02-23T22:29:26.796Z,119.10
2023-02-23T22:31:55.361Z,106.50
2023-02-23T22:34:23.464Z,119.40
2023-02-23T22:36:51.655Z,132.20
2023-02-23T22:39:20.168Z,121.40
2023-02-23T22:41:48.884Z,117.20
2023-02-23T22:44:21.390Z,121.30
2023-02-23T22:46:49.605Z,121.10
2023-02-23T22:49:19.853Z,111.50
2023-02-23T22:51:48.290Z,116.70
2023-02-23T22:54:17.319Z,130.30
2023-02-23T22:56:46.792Z,112.90
2023-02-23T22:59:17.551Z,125.80
2023-02-23T23:01:47.525Z,118.80
2023-02-23T23:04:16.023Z,126.60
2023-02-23T23:06:44.241Z,131.50
2023-02-23T23:09:12.870Z,148.30
2023-02-23T23:11:41.754Z,109.20
2023-02-23T23:14:14.200Z,111.10
2023-02-23T23:16:47.820Z,110.10
2023-02-23T23:19:26.167Z,108.90
2023-02-23T23:21:55.820Z,195.60
2023-02-23T23:24:24.756Z,108.20
2023-02-23T23:27:00.032Z,104.10
2023-02-23T23:29:32.337Z,107.10
2023-02-23T23:32:02.732Z,104.20
2023-02-23T23:34:34.394Z,96.30
2023-02-23T23:37:02.912Z,494.60
2023-02-23T23:39:31.029Z,202.80
2023-02-23T23:42:01.693Z,109.00
2023-02-23T23:44:29.887Z,111.30
2023-02-23T23:46:58.435Z,98.40
2023-02-23T23:49:26.681Z,109.20
2023-02-23T23:51:56.648Z,98.10
2023-02-23T23:54:31.171Z,107.80
2023-02-23T23:57:05.679Z,97.20
2023-02-23T23:59:35.463Z,88.70
